createdAt,value
2022-08-28T00:00:30.281Z,7.50
2022-08-28T00:02:57.919Z,7.50
2022-08-28T00:05:28.085Z,8.25
2022-08-28T00:07:55.033Z,7.00
2022-08-28T00:10:24.141Z,10.00
2022-08-28T00:12:52.837Z,8.75
2022-08-28T00:15:24.331Z,7.25
2022-08-28T00:17:51.070Z,8.25
2022-08-28T00:20:20.007Z,8.50
2022-08-28T00:22:46.743Z,9.00
2022-08-28T00:25:14.745Z,8.25
2022-08-28T00:27:53.433Z,7.00
2022-08-28T00:30:43.723Z,7.75
2022-08-28T00:33:15.104Z,10.50
2022-08-28T00:35:42.700Z,7.75
2022-08-28T00:38:11.361Z,10.50
2022-08-28T00:40:39.627Z,10.50
2022-08-28T00:43:08.249Z,10.00
2022-08-28T00:45:39.628Z,12.00
2022-08-28T00:48:07.034Z,15.00
2022-08-28T00:51:00.366Z,10.00
2022-08-28T00:53:29.974Z,10.50
2022-08-28T00:56:01.373Z,13.75
2022-08-28T00:58:28.121Z,10.75
2022-08-28T01:00:54.804Z,10.75
2022-08-28T01:03:21.731Z,13.50
2022-08-28T01:05:51.924Z,11.00
2022-08-28T01:08:18.997Z,10.50
2022-08-28T01:10:53.871Z,10.00
2022-08-28T01:13:21.083Z,10.75
2022-08-28T01:15:49.489Z,7.75
2022-08-28T01:18:16.799Z,10.50
2022-08-28T01:20:59.278Z,11.25
2022-08-28T01:23:56.970Z,8.75
2022-08-28T01:26:25.477Z,11.75
2022-08-28T01:28:52.330Z,9.25
2022-08-28T01:31:20.603Z,9.00
2022-08-28T01:33:48.409Z,9.50
2022-08-28T01:36:15.863Z,9.00
2022-08-28T01:38:45.019Z,11.75
2022-08-28T01:41:14.114Z,8.75
2022-08-28T01:43:42.366Z,11.00
2022-08-28T01:46:11.710Z,7.25
2022-08-28T01:48:42.544Z,9.25
2022-08-28T01:51:10.345Z,13.00
2022-08-28T01:53:38.323Z,9.25
2022-08-28T01:56:12.796Z,7.50
2022-08-28T01:58:40.400Z,9.75
2022-08-28T02:01:12.485Z,10.00
2022-08-28T02:03:39.801Z,9.75
2022-08-28T02:06:07.258Z,7.50
2022-08-28T02:08:33.941Z,9.00
2022-08-28T02:11:00.809Z,9.00
2022-08-28T02:13:27.694Z,8.00
2022-08-28T02:15:54.683Z,8.25
2022-08-28T02:18:21.917Z,10.50
2022-08-28T02:20:48.545Z,9.75
2022-08-28T02:23:15.245Z,8.50
2022-08-28T02:25:41.937Z,11.00
2022-08-28T02:28:09.207Z,10.00
2022-08-28T02:30:36.689Z,11.00
2022-08-28T02:33:03.612Z,9.25
2022-08-28T02:35:31.272Z,9.25
2022-08-28T02:38:00.552Z,7.00
2022-08-28T02:40:28.178Z,9.00
2022-08-28T02:42:54.910Z,8.75
2022-08-28T02:45:21.657Z,9.75
2022-08-28T02:47:51.461Z,8.00
2022-08-28T02:50:19.822Z,8.50
2022-08-28T02:52:46.935Z,8.75
2022-08-28T02:55:15.667Z,10.50
2022-08-28T02:57:42.840Z,10.00
2022-08-28T03:00:13.020Z,7.25
2022-08-28T03:02:41.282Z,9.25
2022-08-28T03:05:09.578Z,8.00
2022-08-28T03:07:36.252Z,10.00
2022-08-28T03:10:04.522Z,8.00
2022-08-28T03:12:31.192Z,8.75
2022-08-28T03:14:57.867Z,9.25
2022-08-28T03:17:24.596Z,7.50
2022-08-28T03:19:51.869Z,9.25
2022-08-28T03:22:39.382Z,8.00
2022-08-28T03:25:07.241Z,8.25
2022-08-28T03:27:34.053Z,7.25
2022-08-28T03:30:02.515Z,8.25
2022-08-28T03:32:29.665Z,7.75
2022-08-28T03:34:56.373Z,9.50
2022-08-28T03:37:23.076Z,9.25
2022-08-28T03:39:49.955Z,7.00
2022-08-28T03:42:17.354Z,7.00
2022-08-28T03:44:44.102Z,7.00
2022-08-28T03:47:12.363Z,7.25
2022-08-28T03:49:39.942Z,9.50
2022-08-28T03:52:06.660Z,9.25
2022-08-28T03:54:33.674Z,11.75
2022-08-28T03:57:00.499Z,8.00
2022-08-28T03:59:31.667Z,11.00
2022-08-28T04:02:00.304Z,9.75
2022-08-28T04:04:26.944Z,8.75
2022-08-28T04:06:53.644Z,8.00
2022-08-28T04:09:20.299Z,9.00
2022-08-28T04:11:46.929Z,7.00
2022-08-28T04:14:13.610Z,10.00
2022-08-28T04:16:40.313Z,9.75
2022-08-28T04:19:07.041Z,8.50
2022-08-28T04:21:36.942Z,8.50
2022-08-28T04:24:06.781Z,10.00
2022-08-28T04:26:36.882Z,9.25
2022-08-28T04:29:04.934Z,8.50
2022-08-28T04:31:32.876Z,9.25
2022-08-28T04:34:05.204Z,8.75
2022-08-28T04:36:33.726Z,12.00
2022-08-28T04:39:01.331Z,9.75
2022-08-28T04:41:28.779Z,8.00
2022-08-28T04:43:57.534Z,8.50
2022-08-28T04:46:25.113Z,8.25
2022-08-28T04:48:53.195Z,7.25
2022-08-28T04:51:20.664Z,9.75
2022-08-28T04:53:47.629Z,8.00
2022-08-28T04:56:15.511Z,9.00
2022-08-28T04:58:44.294Z,10.75
2022-08-28T05:01:19.021Z,10.00
2022-08-28T05:03:47.400Z,9.00
2022-08-28T05:06:15.643Z,10.00
2022-08-28T05:08:43.417Z,7.00
2022-08-28T05:11:13.871Z,10.25
2022-08-28T05:13:59.282Z,10.00
2022-08-28T05:16:25.970Z,5.00
2022-08-28T05:18:53.011Z,9.00
2022-08-28T05:21:22.679Z,7.75
2022-08-28T05:23:53.368Z,8.00
2022-08-28T05:26:20.249Z,12.25
2022-08-28T05:28:48.505Z,9.00
2022-08-28T05:31:21.830Z,9.25
2022-08-28T05:33:50.059Z,7.50
2022-08-28T05:36:19.017Z,7.00
2022-08-28T05:38:46.317Z,9.50
2022-08-28T05:41:20.725Z,10.25
2022-08-28T05:43:48.234Z,12.00
2022-08-28T05:46:16.360Z,10.50
2022-08-28T05:48:43.540Z,8.25
2022-08-28T05:51:14.585Z,9.50
2022-08-28T05:53:44.125Z,9.00
2022-08-28T05:56:13.799Z,8.25
2022-08-28T05:58:40.823Z,7.75
2022-08-28T06:01:19.551Z,9.25
2022-08-28T06:03:55.271Z,10.75
2022-08-28T06:06:24.685Z,9.00
2022-08-28T06:08:59.011Z,8.00
2022-08-28T06:11:30.861Z,10.50
2022-08-28T06:14:02.813Z,9.75
2022-08-28T06:16:32.938Z,10.00
2022-08-28T06:19:00.578Z,9.75
2022-08-28T06:21:27.983Z,9.25
2022-08-28T06:23:55.101Z,8.25
2022-08-28T06:26:22.153Z,10.75
2022-08-28T06:28:48.936Z,11.00
2022-08-28T06:31:23.346Z,8.00
2022-08-28T06:33:50.783Z,10.00
2022-08-28T06:36:17.449Z,9.00
2022-08-28T06:38:46.817Z,8.25
2022-08-28T06:41:15.773Z,7.75
2022-08-28T06:43:42.959Z,8.50
2022-08-28T06:46:09.905Z,6.00
2022-08-28T06:48:36.703Z,8.00
2022-08-28T06:51:06.949Z,8.25
2022-08-28T06:53:33.935Z,11.00
2022-08-28T06:56:11.400Z,9.75
2022-08-28T06:58:42.616Z,8.25
2022-08-28T07:01:25.498Z,9.75
2022-08-28T07:03:55.782Z,8.25
2022-08-28T07:06:23.847Z,7.50
2022-08-28T07:08:51.405Z,8.25
2022-08-28T07:11:22.166Z,10.50
2022-08-28T07:13:54.481Z,8.25
2022-08-28T07:16:24.022Z,8.00
2022-08-28T07:18:50.773Z,8.50
2022-08-28T07:21:17.843Z,9.25
2022-08-28T07:23:45.292Z,9.00
2022-08-28T07:26:19.256Z,10.25
2022-08-28T07:28:46.276Z,8.50
2022-08-28T07:31:18.881Z,7.75
2022-08-28T07:33:46.444Z,8.00
2022-08-28T07:36:29.463Z,8.00
2022-08-28T07:38:59.006Z,7.00
2022-08-28T07:41:30.288Z,8.75
2022-08-28T07:44:15.773Z,10.75
2022-08-28T07:46:43.287Z,10.75
2022-08-28T07:49:10.928Z,9.50
2022-08-28T07:51:37.859Z,8.00
2022-08-28T07:54:05.383Z,8.75
2022-08-28T07:56:33.177Z,7.50
2022-08-28T07:59:01.585Z,10.75
2022-08-28T08:01:30.689Z,8.00
2022-08-28T08:04:01.592Z,9.75
2022-08-28T08:06:34.309Z,9.00
2022-08-28T08:09:02.365Z,11.00
2022-08-28T08:11:32.257Z,9.00
2022-08-28T08:14:04.662Z,8.25
2022-08-28T08:16:41.488Z,9.00
2022-08-28T08:19:10.238Z,8.00
2022-08-28T08:21:37.862Z,10.25
2022-08-28T08:24:05.351Z,9.50
2022-08-28T08:26:33.192Z,9.25
2022-08-28T08:29:00.743Z,10.00
2022-08-28T08:31:32.502Z,10.25
2022-08-28T08:34:02.253Z,9.50
2022-08-28T08:36:30.440Z,11.00
2022-08-28T08:38:59.982Z,9.50
2022-08-28T08:41:39.282Z,9.25
2022-08-28T08:44:21.333Z,10.25
2022-08-28T08:47:08.610Z,8.00
2022-08-28T08:49:42.323Z,10.75
2022-08-28T08:52:12.027Z,10.00
2022-08-28T08:54:44.186Z,8.50
2022-08-28T08:57:14.182Z,9.50
2022-08-28T08:59:41.718Z,8.25
2022-08-28T09:02:15.457Z,8.50
2022-08-28T09:04:55.944Z,8.00
2022-08-28T09:07:53.035Z,8.25
2022-08-28T09:10:20.115Z,9.75
2022-08-28T09:13:01.125Z,11.00
2022-08-28T09:15:33.870Z,8.00
2022-08-28T09:18:14.448Z,7.00
2022-08-28T09:20:42.201Z,9.75
2022-08-28T09:23:12.593Z,8.00
2022-08-28T09:26:04.441Z,7.00
2022-08-28T09:28:38.511Z,7.50
2022-08-28T09:31:28.914Z,6.00
2022-08-28T09:33:55.648Z,7.25
2022-08-28T09:36:35.438Z,10.00
2022-08-28T09:39:32.795Z,7.75
2022-08-28T09:42:33.017Z,7.50
2022-08-28T09:45:13.768Z,9.25
2022-08-28T09:47:48.963Z,6.50
2022-08-28T09:50:15.587Z,7.25
2022-08-28T09:52:42.327Z,6.75
2022-08-28T09:55:13.025Z,7.25
2022-08-28T09:57:45.905Z,6.75
2022-08-28T10:00:13.600Z,6.00
2022-08-28T10:02:49.568Z,6.00
2022-08-28T10:05:26.693Z,7.25
2022-08-28T10:08:03.009Z,5.50
2022-08-28T10:10:35.812Z,8.00
2022-08-28T10:13:14.570Z,6.75
2022-08-28T10:15:43.354Z,7.25
2022-08-28T10:18:33.942Z,9.50
2022-08-28T10:21:21.839Z,5.50
2022-08-28T10:24:12.771Z,6.50
2022-08-28T10:27:20.979Z,7.00
2022-08-28T10:29:53.339Z,8.25
2022-08-28T10:32:47.262Z,7.25
2022-08-28T10:35:22.964Z,8.00
2022-08-28T10:37:55.718Z,6.50
2022-08-28T10:40:30.701Z,7.00
2022-08-28T10:43:22.434Z,8.25
2022-08-28T10:45:51.746Z,5.00
2022-08-28T10:48:24.280Z,6.00
2022-08-28T10:50:55.981Z,5.75
2022-08-28T10:53:43.978Z,6.25
2022-08-28T10:56:17.092Z,6.50
2022-08-28T10:58:47.620Z,6.75
2022-08-28T11:01:25.169Z,6.50
2022-08-28T11:03:52.381Z,7.00
2022-08-28T11:06:30.592Z,7.25
2022-08-28T11:09:20.499Z,6.75
2022-08-28T11:11:49.153Z,8.50
2022-08-28T11:14:29.910Z,6.50
2022-08-28T11:17:33.162Z,9.75
2022-08-28T11:20:08.740Z,7.50
2022-08-28T11:22:56.751Z,7.25
2022-08-28T11:25:32.821Z,7.00
2022-08-28T11:28:22.332Z,6.75
2022-08-28T11:31:05.610Z,9.00
2022-08-28T11:33:53.034Z,7.50
2022-08-28T11:36:19.786Z,7.00
2022-08-28T11:38:52.356Z,7.00
2022-08-28T11:41:24.498Z,7.00
2022-08-28T11:44:11.274Z,8.00
2022-08-28T11:46:43.627Z,6.25
2022-08-28T11:49:32.147Z,7.00
2022-08-28T11:52:17.287Z,8.00
2022-08-28T11:55:17.118Z,7.00
2022-08-28T12:00:46.264Z,7.50
2022-08-28T12:03:16.700Z,8.25
2022-08-28T12:05:46.823Z,4.75
2022-08-28T12:08:34.022Z,5.25
2022-08-28T12:11:00.669Z,6.25
2022-08-28T12:13:57.467Z,6.25
2022-08-28T12:16:24.312Z,8.00
2022-08-28T12:18:50.954Z,6.00
2022-08-28T12:21:22.391Z,8.00
2022-08-28T12:24:07.188Z,7.00
2022-08-28T12:26:38.967Z,7.00
2022-08-28T12:29:28.215Z,7.33
2022-08-28T12:32:13.238Z,7.00
2022-08-28T12:34:42.533Z,6.00
2022-08-28T12:37:28.068Z,6.00
2022-08-28T12:39:59.732Z,6.25
2022-08-28T12:42:35.470Z,7.00
2022-08-28T12:45:10.184Z,4.25
2022-08-28T12:47:39.049Z,6.00
2022-08-28T12:50:26.263Z,7.25
2022-08-28T12:52:56.256Z,6.50
2022-08-28T12:55:24.752Z,6.50
2022-08-28T12:57:51.828Z,6.00
2022-08-28T13:00:32.478Z,8.00
2022-08-28T13:03:00.704Z,5.00
2022-08-28T13:05:29.994Z,6.00
2022-08-28T13:07:58.670Z,6.25
2022-08-28T13:10:32.017Z,7.75
2022-08-28T13:13:05.705Z,6.00
2022-08-28T13:15:46.295Z,7.00
2022-08-28T13:18:45.406Z,8.00
2022-08-28T13:21:32.844Z,5.75
2022-08-28T13:24:21.248Z,6.50
2022-08-28T13:26:50.492Z,7.00
2022-08-28T13:29:21.205Z,5.00
2022-08-28T13:32:00.768Z,6.75
2022-08-28T13:34:33.217Z,6.50
2022-08-28T13:37:02.687Z,6.00
2022-08-28T13:39:34.479Z,7.00
2022-08-28T13:42:08.241Z,6.75
2022-08-28T13:44:50.844Z,6.00
2022-08-28T13:47:17.882Z,6.00
2022-08-28T13:49:44.530Z,6.00
2022-08-28T13:52:11.562Z,6.50
2022-08-28T13:54:43.625Z,5.50
2022-08-28T13:57:13.531Z,4.75
2022-08-28T13:59:40.235Z,5.75
2022-08-28T14:02:29.738Z,6.00
2022-08-28T14:04:56.439Z,6.00
2022-08-28T14:07:23.708Z,5.50
2022-08-28T14:09:55.497Z,7.00
2022-08-28T14:12:24.948Z,5.50
2022-08-28T14:15:01.160Z,7.75
2022-08-28T14:17:27.794Z,6.25
2022-08-28T14:19:54.443Z,5.50
2022-08-28T14:22:21.080Z,7.75
2022-08-28T14:24:47.729Z,5.25
2022-08-28T14:27:14.357Z,7.75
2022-08-28T14:29:41.084Z,5.00
2022-08-28T14:32:07.913Z,8.00
2022-08-28T14:34:34.880Z,8.00
2022-08-28T14:37:01.995Z,4.75
2022-08-28T14:39:28.944Z,5.00
2022-08-28T14:41:55.771Z,5.25
2022-08-28T14:44:24.670Z,5.00
2022-08-28T14:46:56.933Z,5.50
2022-08-28T14:49:24.391Z,5.25
2022-08-28T14:51:51.571Z,5.00
2022-08-28T14:54:22.195Z,5.00
2022-08-28T14:56:50.255Z,5.75
2022-08-28T14:59:24.274Z,6.50
2022-08-28T15:01:53.138Z,6.50
2022-08-28T15:04:22.911Z,4.00
2022-08-28T15:06:51.559Z,5.00
2022-08-28T15:09:19.131Z,5.75
2022-08-28T15:11:45.784Z,5.50
2022-08-28T15:14:12.566Z,5.50
2022-08-28T15:16:43.153Z,4.25
2022-08-28T15:19:13.276Z,6.00
2022-08-28T15:21:49.556Z,7.00
2022-08-28T15:24:18.819Z,5.75
2022-08-28T15:26:45.681Z,5.00
2022-08-28T15:29:12.900Z,6.25
2022-08-28T15:31:42.622Z,4.00
2022-08-28T15:34:13.543Z,5.00
2022-08-28T15:36:41.675Z,5.25
2022-08-28T15:39:28.001Z,9.00
2022-08-28T15:41:55.338Z,6.50
2022-08-28T15:44:22.364Z,5.75
2022-08-28T15:46:55.349Z,6.00
2022-08-28T15:49:24.142Z,4.50
2022-08-28T15:51:51.694Z,4.75
2022-08-28T15:54:19.079Z,5.00
2022-08-28T15:56:46.387Z,4.50
2022-08-28T15:59:17.689Z,5.00
2022-08-28T16:01:45.403Z,7.00
2022-08-28T16:04:12.613Z,7.50
2022-08-28T16:06:39.971Z,5.00
2022-08-28T16:09:08.846Z,6.00
2022-08-28T16:11:35.621Z,5.50
2022-08-28T16:14:05.754Z,5.00
2022-08-28T16:16:33.683Z,4.50
2022-08-28T16:19:00.476Z,5.50
2022-08-28T16:21:28.212Z,6.50
2022-08-28T16:23:55.663Z,4.25
2022-08-28T16:26:22.961Z,5.00
2022-08-28T16:28:50.232Z,5.75
2022-08-28T16:31:19.942Z,6.75
2022-08-28T16:33:47.969Z,5.75
2022-08-28T16:36:15.323Z,5.75
2022-08-28T16:38:43.896Z,9.00
2022-08-28T16:41:16.324Z,6.00
2022-08-28T16:43:43.821Z,5.50
2022-08-28T16:46:17.091Z,5.50
2022-08-28T16:48:45.176Z,5.75
2022-08-28T16:51:12.662Z,5.75
2022-08-28T16:53:42.963Z,5.75
2022-08-28T16:56:15.023Z,7.50
2022-08-28T16:58:42.919Z,6.25
2022-08-28T17:01:12.143Z,5.50
2022-08-28T17:03:39.475Z,5.25
2022-08-28T17:06:13.747Z,6.25
2022-08-28T17:08:41.485Z,5.00
2022-08-28T17:11:08.690Z,5.00
2022-08-28T17:13:35.735Z,8.75
2022-08-28T17:16:03.347Z,7.25
2022-08-28T17:18:30.122Z,5.50
2022-08-28T17:21:15.801Z,6.50
2022-08-28T17:23:42.523Z,8.00
2022-08-28T17:26:09.477Z,5.50
2022-08-28T17:28:36.203Z,7.50
2022-08-28T17:31:03.031Z,6.00
2022-08-28T17:33:30.173Z,6.75
2022-08-28T17:35:59.794Z,6.50
2022-08-28T17:38:26.518Z,6.00
2022-08-28T17:40:53.458Z,5.75
2022-08-28T17:43:21.291Z,4.75
2022-08-28T17:45:48.492Z,6.75
2022-08-28T17:48:17.055Z,5.25
2022-08-28T17:50:46.284Z,5.75
2022-08-28T17:53:13.482Z,6.50
2022-08-28T17:55:40.200Z,4.75
2022-08-28T17:58:06.904Z,5.00
2022-08-28T18:00:34.759Z,7.00
2022-08-28T18:03:02.740Z,6.75
2022-08-28T18:05:29.654Z,3.00
2022-08-28T18:07:56.415Z,5.25
2022-08-28T18:10:23.075Z,5.50
2022-08-28T18:12:50.173Z,7.00
2022-08-28T18:15:16.892Z,7.75
2022-08-28T18:17:50.331Z,8.50
2022-08-28T18:20:19.037Z,7.50
2022-08-28T18:22:46.656Z,11.50
2022-08-28T18:25:33.579Z,12.00
2022-08-28T18:28:01.309Z,7.50
2022-08-28T18:30:28.669Z,7.00
2022-08-28T18:32:55.843Z,6.25
2022-08-28T18:35:31.629Z,8.00
2022-08-28T18:37:59.342Z,8.00
2022-08-28T18:40:26.259Z,7.25
2022-08-28T18:42:53.000Z,6.00
2022-08-28T18:45:19.826Z,9.25
2022-08-28T18:47:46.538Z,7.50
2022-08-28T18:50:13.660Z,7.50
2022-08-28T18:52:41.051Z,7.00
2022-08-28T18:55:09.133Z,8.50
2022-08-28T18:57:35.838Z,6.25
2022-08-28T19:00:02.840Z,5.75
2022-08-28T19:02:29.635Z,7.00
2022-08-28T19:04:56.448Z,6.25
2022-08-28T19:07:23.178Z,8.00
2022-08-28T19:09:49.832Z,6.25
2022-08-28T19:12:16.528Z,6.00
2022-08-28T19:14:43.314Z,7.50
2022-08-28T19:17:09.964Z,6.75
2022-08-28T19:19:37.078Z,6.50
2022-08-28T19:22:03.859Z,7.25
2022-08-28T19:24:33.806Z,6.75
2022-08-28T19:27:01.201Z,6.50
2022-08-28T19:29:28.022Z,6.00
2022-08-28T19:31:55.158Z,7.50
2022-08-28T19:34:22.074Z,7.25
2022-08-28T19:36:48.880Z,8.50
2022-08-28T19:39:15.526Z,7.00
2022-08-28T19:41:43.847Z,6.75
2022-08-28T19:44:11.207Z,8.25
2022-08-28T19:46:39.016Z,7.00
2022-08-28T19:49:07.581Z,10.00
2022-08-28T19:51:35.822Z,8.00
2022-08-28T19:54:03.809Z,6.50
2022-08-28T19:56:32.670Z,13.75
2022-08-28T19:59:01.697Z,9.25
2022-08-28T20:01:30.229Z,6.00
2022-08-28T20:03:58.684Z,9.50
2022-08-28T20:06:26.169Z,8.00
2022-08-28T20:08:52.882Z,7.50
2022-08-28T20:11:24.929Z,9.25
2022-08-28T20:13:54.078Z,7.00
2022-08-28T20:16:21.547Z,7.75
2022-08-28T20:18:49.842Z,11.00
2022-08-28T20:21:18.779Z,9.50
2022-08-28T20:23:53.240Z,10.00
2022-08-28T20:26:20.508Z,10.25
2022-08-28T20:28:47.123Z,8.75
2022-08-28T20:31:17.872Z,7.75
2022-08-28T20:33:47.164Z,10.75
2022-08-28T20:36:20.841Z,9.50
2022-08-28T20:38:48.054Z,10.50
2022-08-28T20:41:18.328Z,8.75
2022-08-28T20:43:46.230Z,8.25
2022-08-28T20:46:14.674Z,11.00
2022-08-28T20:48:41.424Z,14.00
2022-08-28T20:51:08.791Z,10.75
2022-08-28T20:53:37.328Z,10.00
2022-08-28T20:56:07.251Z,11.75
2022-08-28T20:58:34.312Z,13.00
2022-08-28T21:01:01.384Z,11.00
2022-08-28T21:03:28.457Z,8.50
2022-08-28T21:05:55.260Z,9.00
2022-08-28T21:08:21.955Z,11.50
2022-08-28T21:10:48.595Z,12.50
2022-08-28T21:13:15.311Z,7.25
2022-08-28T21:15:42.039Z,11.00
2022-08-28T21:18:09.930Z,13.25
2022-08-28T21:20:38.431Z,8.50
2022-08-28T21:23:06.735Z,10.50
2022-08-28T21:25:33.542Z,13.00
2022-08-28T21:28:04.224Z,9.50
2022-08-28T21:30:31.367Z,10.00
2022-08-28T21:32:58.117Z,9.25
2022-08-28T21:35:24.917Z,10.00
2022-08-28T21:37:51.549Z,9.25
2022-08-28T21:40:19.516Z,11.00
2022-08-28T21:42:46.349Z,9.00
2022-08-28T21:45:13.371Z,10.75
2022-08-28T21:47:41.767Z,7.75
2022-08-28T21:50:08.849Z,9.25
2022-08-28T21:52:35.708Z,11.25
2022-08-28T21:55:07.789Z,7.75
2022-08-28T21:57:34.902Z,10.25
2022-08-28T22:00:01.855Z,10.00
2022-08-28T22:02:28.660Z,8.50
2022-08-28T22:04:55.392Z,9.00
2022-08-28T22:07:22.072Z,9.50
2022-08-28T22:09:48.830Z,11.00
2022-08-28T22:12:16.466Z,8.75
2022-08-28T22:14:43.687Z,9.75
2022-08-28T22:17:11.377Z,9.00
2022-08-28T22:19:39.309Z,10.00
2022-08-28T22:22:24.687Z,9.00
2022-08-28T22:24:51.567Z,10.50
2022-08-28T22:27:18.185Z,10.50
2022-08-28T22:29:44.936Z,9.25
2022-08-28T22:32:11.659Z,10.00
2022-08-28T22:34:41.403Z,8.75
2022-08-28T22:37:11.554Z,9.00
2022-08-28T22:39:42.123Z,7.25
2022-08-28T22:42:10.042Z,8.00
2022-08-28T22:44:37.979Z,8.75
2022-08-28T22:47:04.924Z,10.25
2022-08-28T22:49:31.883Z,10.50
2022-08-28T22:51:58.568Z,8.50
2022-08-28T22:54:26.387Z,8.50
2022-08-28T22:56:53.115Z,8.00
2022-08-28T22:59:19.794Z,10.75
2022-08-28T23:01:46.705Z,10.75
2022-08-28T23:04:13.390Z,8.50
2022-08-28T23:06:40.442Z,10.75
2022-08-28T23:09:08.433Z,11.00
2022-08-28T23:11:36.543Z,9.25
2022-08-28T23:14:04.870Z,9.00
2022-08-28T23:16:31.691Z,11.25
2022-08-28T23:19:13.822Z,9.00
2022-08-28T23:21:43.755Z,9.75
2022-08-28T23:24:16.152Z,7.50
2022-08-28T23:26:44.663Z,12.75
2022-08-28T23:29:12.514Z,12.75
2022-08-28T23:31:39.587Z,11.00
2022-08-28T23:34:06.299Z,10.25
2022-08-28T23:36:35.462Z,11.75
2022-08-28T23:39:03.755Z,9.00
2022-08-28T23:41:31.570Z,7.00
2022-08-28T23:43:58.239Z,8.50
2022-08-28T23:46:25.594Z,7.75
2022-08-28T23:48:52.444Z,10.25
2022-08-28T23:51:19.192Z,11.00
2022-08-28T23:53:46.112Z,9.00
2022-08-28T23:56:14.295Z,8.75
2022-08-28T23:58:43.066Z,8.25
